Disclaimer

Please do not use the information listed here in-flight or in-navigation, as they are not provided to us by the airports but are provided by volunteers, so they might be outdated.

Search


Regions


Airport information page

Radio informations:
REIMS APP - 119.8 MHz

Airport informations:
Latitude: 49° 12' 31.28" N
Longitude: 004° 09' 23.69" E
Elevation: 313 feet - 95 meters
Operating hours: NO OPERATING HOURS LISTED
Operating agency: Civil government, landing fees and diplomatic clearance may be required
Timezone: UTC+1(+2DT) - Last Sunday in March to last Sunday in October
Fuel: Jet A1, without icing nhibitor.

100/130 MIL Spec, low lead, aviation gasoline (BLUE)

Runway information:
07/25 - 3773 x 98 feet< - >1150 x 30 meters

Recent METARs:
LFQA 151700Z AUTO 14012KT CAVOK 01/M04 Q1017
LFQA 151730Z AUTO 14012KT 9999 BKN047 BKN062 OVC072 01/M04 Q1017
LFQA 151800Z AUTO 14013KT 9999 -SN ///TCU 01/M03 Q1016

Airport on the map: